Time;durP1;ratioP1;P1;durP2;ratioP2;P2;SDS_P1;SDS_P2;PMS_P1;PMS_P2;Temp;Humidity;BMP_temperature;BMP_pressure;BME280_temperature;BME280_humidity;BME280_pressure;Samples;Min_cycle;Max_cycle;Signal;HPM_P1;HPM_P2
2022/01/14 00:00:59;;;;;;;4.03;3.40;;;22.20;31.20;;;;;;5034110;28;20042;-47
2022/01/14 00:03:25;;;;;;;4.38;3.10;;;22.20;31.30;;;;;;5040018;28;20025;-47
2022/01/14 00:05:51;;;;;;;3.17;2.88;;;22.20;31.30;;;;;;5043957;28;20018;-46
2022/01/14 00:08:18;;;;;;;3.85;3.38;;;22.20;31.90;;;;;;5036471;28;20032;-47
2022/01/14 00:10:48;;;;;;;3.90;3.25;;;22.30;31.30;;;;;;5037524;28;20032;-46
2022/01/14 00:13:39;;;;;;;3.88;3.13;;;22.30;31.30;;;;;;5039866;28;20020;-45
2022/01/14 00:16:01;;;;;;;3.40;3.10;;;22.20;31.30;;;;;;5038653;28;20032;-47
2022/01/14 00:18:26;;;;;;;3.80;3.10;;;22.20;31.30;;;;;;5025639;28;20166;-47
2022/01/14 00:20:55;;;;;;;3.88;3.47;;;22.20;31.40;;;;;;5055454;28;20029;-44
2022/01/14 00:23:28;;;;;;;3.85;3.10;;;22.20;31.40;;;;;;5045794;28;20120;-48
2022/01/14 00:34:07;;;;;;;3.35;2.97;;;22.10;31.40;;;;;;5038999;28;20040;-49
2022/01/14 00:36:33;;;;;;;4.20;3.45;;;22.20;31.40;;;;;;5037080;28;20344;-49
2022/01/14 00:38:58;;;;;;;3.75;3.33;;;22.20;31.40;;;;;;5040334;28;20113;-48
2022/01/14 00:41:24;;;;;;;4.07;3.38;;;22.10;31.40;;;;;;5037180;28;20424;-49
2022/01/14 00:43:56;;;;;;;3.75;2.97;;;22.10;31.40;;;;;;5040509;28;20045;-50
2022/01/14 00:46:22;;;;;;;3.47;2.80;;;22.10;31.30;;;;;;5037211;28;20068;-49
2022/01/14 00:48:48;;;;;;;3.13;2.78;;;22.10;31.40;;;;;;5042080;28;20033;-45
2022/01/14 00:51:14;;;;;;;3.45;2.92;;;22.10;31.40;;;;;;5054859;28;20060;-49
2022/01/14 00:53:40;;;;;;;3.10;2.75;;;22.10;31.40;;;;;;5043223;28;21614;-47
2022/01/14 00:56:19;;;;;;;3.22;2.90;;;22.10;31.30;;;;;;5041641;28;20029;-48
2022/01/14 01:01:29;;;;;;;3.70;3.30;;;22.10;31.40;;;;;;5053240;28;20048;-43
2022/01/14 01:03:56;;;;;;;5.32;3.55;;;22.10;31.40;;;;;;5042286;28;20425;-48
2022/01/14 01:06:22;;;;;;;3.78;3.30;;;22.10;31.40;;;;;;5044946;28;20175;-47
2022/01/14 01:08:50;;;;;;;3.88;2.85;;;22.10;31.40;;;;;;5038673;28;20120;-48
2022/01/14 01:11:23;;;;;;;4.13;3.40;;;22.10;31.40;;;;;;5036208;28;20440;-51
2022/01/14 01:13:58;;;;;;;3.80;3.20;;;22.10;31.40;;;;;;5041519;28;20487;-45
2022/01/14 01:16:25;;;;;;;3.95;3.42;;;22.10;31.50;;;;;;5054739;28;20384;-47
2022/01/14 01:18:50;;;;;;;3.47;2.95;;;22.10;31.50;;;;;;5035907;28;20100;-50
2022/01/14 01:21:16;;;;;;;4.15;3.50;;;22.10;31.50;;;;;;5042914;28;20097;-48
2022/01/14 01:23:42;;;;;;;4.00;3.60;;;22.00;31.40;;;;;;5036029;28;20030;-48
2022/01/14 01:26:19;;;;;;;4.18;3.50;;;22.00;31.40;;;;;;5021100;28;20048;-50
2022/01/14 01:31:37;;;;;;;4.10;3.22;;;22.00;31.50;;;;;;5040828;28;20030;-48
2022/01/14 01:34:19;;;;;;;3.80;3.38;;;22.00;31.50;;;;;;5042967;28;20037;-48
2022/01/14 01:36:49;;;;;;;4.68;3.75;;;22.00;31.40;;;;;;5038305;28;20029;-46
2022/01/14 01:39:19;;;;;;;4.40;3.58;;;22.00;31.50;;;;;;5038501;28;20021;-46
2022/01/14 01:41:48;;;;;;;4.15;3.70;;;22.00;31.50;;;;;;5041769;28;20030;-46
2022/01/14 01:44:15;;;;;;;4.85;4.18;;;22.00;31.50;;;;;;5037336;28;20025;-47
2022/01/14 01:46:44;;;;;;;4.35;3.58;;;22.00;31.50;;;;;;5044669;28;20060;-47
2022/01/14 01:49:10;;;;;;;5.13;4.13;;;22.00;31.50;;;;;;5047796;28;20052;-48
2022/01/14 01:51:37;;;;;;;4.53;3.58;;;22.00;31.50;;;;;;5044614;28;20428;-46
2022/01/14 01:54:03;;;;;;;4.35;3.50;;;22.00;31.50;;;;;;5037056;28;20032;-49
2022/01/14 01:56:30;;;;;;;4.20;3.80;;;21.90;31.50;;;;;;5047962;28;20045;-48
2022/01/14 01:58:56;;;;;;;4.50;3.65;;;21.90;31.50;;;;;;5052668;28;20028;-46
2022/01/14 02:01:24;;;;;;;4.72;4.22;;;21.90;31.50;;;;;;5047270;28;20029;-49
2022/01/14 02:03:50;;;;;;;4.63;3.45;;;22.00;31.50;;;;;;5027833;28;20115;-48
2022/01/14 02:06:17;;;;;;;4.05;3.47;;;21.90;31.50;;;;;;5035251;28;20029;-47
2022/01/14 02:08:43;;;;;;;3.85;3.45;;;21.90;31.50;;;;;;5021254;28;20712;-47
2022/01/14 02:11:09;;;;;;;4.47;3.80;;;21.90;31.50;;;;;;5038473;28;20028;-48
2022/01/14 02:13:35;;;;;;;5.35;3.80;;;21.90;31.50;;;;;;5040262;28;20032;-48
2022/01/14 02:18:36;;;;;;;4.40;3.65;;;21.90;31.50;;;;;;5044628;28;20447;-48
2022/01/14 02:23:54;;;;;;;4.38;3.80;;;21.90;31.50;;;;;;5045573;28;20036;-49
2022/01/14 02:26:22;;;;;;;4.07;3.65;;;21.90;31.60;;;;;;5035557;28;20584;-49
2022/01/14 02:28:49;;;;;;;5.30;4.13;;;21.90;31.60;;;;;;5040513;28;20032;-45
2022/01/14 02:31:16;;;;;;;4.45;4.03;;;21.80;31.50;;;;;;5050952;28;20386;-47
2022/01/14 02:33:43;;;;;;;4.68;3.90;;;21.90;31.50;;;;;;5040956;28;20032;-48
2022/01/14 02:36:09;;;;;;;4.38;3.60;;;21.80;32.10;;;;;;5049020;28;20433;-45
2022/01/14 02:38:35;;;;;;;5.07;3.63;;;21.90;31.50;;;;;;5042098;28;20104;-47
2022/01/14 02:41:02;;;;;;;3.97;3.50;;;21.80;31.50;;;;;;5048257;28;20078;-49
2022/01/14 02:43:28;;;;;;;4.75;3.97;;;21.80;31.50;;;;;;5039857;28;20171;-50
2022/01/14 02:45:56;;;;;;;3.92;3.55;;;21.80;31.50;;;;;;5045726;28;20029;-49
2022/01/14 02:48:25;;;;;;;4.43;3.65;;;21.80;31.50;;;;;;5036543;28;20100;-48
2022/01/14 02:50:56;;;;;;;4.40;3.35;;;21.80;31.50;;;;;;5044433;28;20025;-46
2022/01/14 02:53:30;;;;;;;4.07;3.30;;;21.80;31.50;;;;;;5045002;28;20033;-46
2022/01/14 02:56:01;;;;;;;4.32;3.40;;;21.80;31.50;;;;;;5044532;28;20021;-47
2022/01/14 02:58:31;;;;;;;3.75;3.25;;;21.80;31.50;;;;;;5044771;28;20043;-48
2022/01/14 03:01:00;;;;;;;3.50;3.08;;;21.80;31.50;;;;;;5051755;28;20031;-44
2022/01/14 03:03:29;;;;;;;3.90;3.20;;;21.80;31.50;;;;;;5051264;28;20013;-45
2022/01/14 03:05:55;;;;;;;4.00;3.60;;;21.80;31.50;;;;;;5043613;28;20039;-46
2022/01/14 03:08:21;;;;;;;4.00;3.50;;;21.70;31.50;;;;;;5052267;28;20033;-51
2022/01/14 03:10:53;;;;;;;4.00;3.30;;;21.80;31.50;;;;;;5042317;28;20079;-52
2022/01/14 03:13:19;;;;;;;3.60;3.28;;;21.80;31.50;;;;;;5052537;28;20071;-45
2022/01/14 03:15:45;;;;;;;3.35;3.05;;;21.70;31.50;;;;;;5045101;28;20420;-46
2022/01/14 03:18:15;;;;;;;3.50;3.20;;;21.80;31.50;;;;;;5035010;28;20339;-48
2022/01/14 03:20:49;;;;;;;3.92;3.13;;;21.80;31.50;;;;;;5039941;28;20483;-46
2022/01/14 03:23:17;;;;;;;3.83;3.28;;;21.70;31.50;;;;;;5035900;28;20104;-46
2022/01/14 03:25:50;;;;;;;3.95;3.38;;;21.80;31.50;;;;;;5036399;28;20104;-47
2022/01/14 03:28:18;;;;;;;3.55;3.25;;;21.70;31.50;;;;;;5035773;28;20049;-48
2022/01/14 03:30:44;;;;;;;3.45;3.00;;;21.70;31.50;;;;;;5040154;28;20090;-45
2022/01/14 03:33:10;;;;;;;3.28;2.97;;;21.70;31.50;;;;;;5046893;28;20041;-44
2022/01/14 03:35:36;;;;;;;3.92;3.35;;;21.70;31.50;;;;;;5036074;28;20086;-49
2022/01/14 03:38:03;;;;;;;4.35;3.38;;;21.70;31.50;;;;;;5048904;28;20017;-46
2022/01/14 03:40:28;;;;;;;3.75;3.03;;;21.70;31.60;;;;;;5034056;28;20029;-45
2022/01/14 03:42:54;;;;;;;3.50;3.15;;;21.70;31.60;;;;;;5036915;28;20360;-49
2022/01/14 03:45:20;;;;;;;3.47;3.17;;;21.70;31.60;;;;;;5045147;28;20025;-50
2022/01/14 03:47:46;;;;;;;3.72;3.10;;;21.70;31.60;;;;;;5038071;28;20040;-48
2022/01/14 03:50:11;;;;;;;3.78;3.08;;;21.70;31.60;;;;;;5038022;28;20096;-51
2022/01/14 03:52:37;;;;;;;3.90;3.33;;;21.60;31.50;;;;;;5051696;28;20029;-46
2022/01/14 03:55:03;;;;;;;3.42;3.08;;;21.60;31.50;;;;;;5050062;28;20025;-46
2022/01/14 03:57:29;;;;;;;4.10;3.30;;;21.70;31.60;;;;;;5048050;28;20037;-49
2022/01/14 03:59:55;;;;;;;4.00;3.40;;;21.60;31.50;;;;;;5053557;28;20173;-48
2022/01/14 04:02:20;;;;;;;4.18;3.35;;;21.60;31.60;;;;;;5045352;28;20368;-50
2022/01/14 04:04:46;;;;;;;3.08;2.78;;;21.60;31.60;;;;;;5022872;28;20055;-45
2022/01/14 04:07:12;;;;;;;3.55;2.78;;;21.60;31.60;;;;;;5038780;28;20099;-51
2022/01/14 04:09:37;;;;;;;3.97;3.08;;;21.60;31.50;;;;;;5038740;28;20034;-45
2022/01/14 04:12:07;;;;;;;3.70;3.20;;;21.60;31.50;;;;;;5039320;28;20028;-47
2022/01/14 04:17:01;;;;;;;3.45;2.92;;;21.60;31.60;;;;;;5042427;28;20035;-45
2022/01/14 04:19:28;;;;;;;3.83;3.20;;;21.60;31.60;;;;;;5041219;28;20013;-46
2022/01/14 04:21:54;;;;;;;3.85;3.30;;;21.60;31.60;;;;;;5041180;28;20017;-49
2022/01/14 04:24:20;;;;;;;4.32;3.47;;;21.60;31.60;;;;;;5041563;28;20083;-46
2022/01/14 04:26:46;;;;;;;3.75;3.30;;;21.60;31.70;;;;;;5039658;28;20099;-45
2022/01/14 04:29:12;;;;;;;4.35;3.88;;;21.60;31.70;;;;;;5045047;28;20411;-45
2022/01/14 04:31:37;;;;;;;4.65;3.53;;;21.50;31.60;;;;;;5038584;28;20040;-48
2022/01/14 04:34:03;;;;;;;4.20;3.80;;;21.50;31.70;;;;;;5037370;28;20044;-47
2022/01/14 04:36:29;;;;;;;4.60;3.53;;;21.50;31.60;;;;;;5055353;28;20336;-47
2022/01/14 04:38:55;;;;;;;4.00;3.60;;;21.50;31.60;;;;;;5053617;28;20029;-51
2022/01/14 04:41:20;;;;;;;3.88;3.47;;;21.50;31.60;;;;;;5052152;28;20047;-45
2022/01/14 04:43:46;;;;;;;3.90;3.15;;;21.50;31.60;;;;;;5040489;28;20424;-44
2022/01/14 04:48:38;;;;;;;4.22;3.58;;;21.50;31.60;;;;;;5049560;28;20051;-44
2022/01/14 04:51:08;;;;;;;3.88;3.47;;;21.50;31.60;;;;;;5050888;28;20456;-50
2022/01/14 04:53:34;;;;;;;4.00;3.60;;;21.50;31.60;;;;;;5021676;28;20017;-48
2022/01/14 04:56:01;;;;;;;3.85;3.45;;;21.50;31.60;;;;;;5038488;28;20057;-48
2022/01/14 04:58:27;;;;;;;3.40;3.10;;;21.50;31.60;;;;;;5047502;28;20493;-47
2022/01/14 05:00:54;;;;;;;4.07;3.50;;;21.50;31.60;;;;;;5039766;28;20052;-46
2022/01/14 05:03:21;;;;;;;4.10;3.55;;;21.50;32.30;;;;;;5045122;28;20041;-52
2022/01/14 05:05:50;;;;;;;4.50;4.10;;;21.50;31.70;;;;;;5054232;28;20036;-48
2022/01/14 05:08:24;;;;;;;4.82;3.63;;;21.50;31.70;;;;;;5043777;28;20040;-48
2022/01/14 05:13:20;;;;;;;4.18;3.42;;;21.50;31.70;;;;;;5049305;28;20882;-47
2022/01/14 05:15:46;;;;;;;3.67;3.33;;;21.40;31.70;;;;;;5053885;28;20025;-50
2022/01/14 05:18:12;;;;;;;4.45;3.78;;;21.40;31.70;;;;;;5041705;28;20086;-46
2022/01/14 05:20:38;;;;;;;4.35;3.60;;;21.40;31.70;;;;;;5047642;28;20322;-47
2022/01/14 05:23:04;;;;;;;4.05;3.65;;;21.40;31.70;;;;;;5041753;28;20029;-45
2022/01/14 05:25:30;;;;;;;3.95;3.47;;;21.50;31.70;;;;;;5020549;28;20340;-51
2022/01/14 05:27:56;;;;;;;3.92;3.53;;;21.40;31.70;;;;;;5038954;28;20098;-46
2022/01/14 05:30:21;;;;;;;3.78;3.35;;;21.40;31.70;;;;;;5043549;28;20013;-45
2022/01/14 05:32:52;;;;;;;4.30;3.83;;;21.40;31.70;;;;;;5044997;28;20332;-52
2022/01/14 05:35:21;;;;;;;4.47;3.47;;;21.40;31.70;;;;;;5042970;28;20021;-47
2022/01/14 05:37:47;;;;;;;3.85;3.47;;;21.40;31.80;;;;;;5041581;28;20022;-45
2022/01/14 05:40:15;;;;;;;4.07;3.50;;;21.40;31.80;;;;;;5040129;28;20021;-50
2022/01/14 05:42:41;;;;;;;4.28;3.38;;;21.40;31.80;;;;;;5054162;28;20025;-47
2022/01/14 05:45:09;;;;;;;4.90;3.97;;;21.40;31.80;;;;;;5047751;28;20021;-50
2022/01/14 05:47:36;;;;;;;3.80;3.40;;;21.40;31.80;;;;;;5048927;28;20108;-49
2022/01/14 05:50:04;;;;;;;4.07;3.47;;;21.40;31.80;;;;;;5029493;28;20021;-50
2022/01/14 05:52:30;;;;;;;3.85;3.45;;;21.40;31.80;;;;;;5036688;28;20063;-48
2022/01/14 05:54:56;;;;;;;4.20;3.67;;;21.40;31.80;;;;;;5048744;28;20111;-51
2022/01/14 05:57:22;;;;;;;4.05;3.50;;;21.40;31.80;;;;;;5051684;28;20060;-47
2022/01/14 05:59:48;;;;;;;4.53;3.47;;;21.30;31.80;;;;;;5040020;28;20030;-47
2022/01/14 06:02:15;;;;;;;3.28;2.90;;;21.40;31.90;;;;;;5036774;28;20036;-51
2022/01/14 06:04:42;;;;;;;3.70;3.08;;;21.30;31.90;;;;;;5041061;28;20108;-46
2022/01/14 06:07:12;;;;;;;3.90;3.30;;;21.40;31.90;;;;;;5037926;28;20119;-47
2022/01/14 06:09:38;;;;;;;4.32;3.33;;;21.30;32.50;;;;;;5040264;28;20022;-47
2022/01/14 06:12:05;;;;;;;4.28;3.15;;;21.30;31.90;;;;;;5038693;28;20038;-47
2022/01/14 06:14:30;;;;;;;3.53;3.10;;;21.30;31.90;;;;;;5042886;28;20116;-47
2022/01/14 06:16:58;;;;;;;3.83;3.38;;;21.30;31.90;;;;;;5042908;28;20174;-47
2022/01/14 06:19:27;;;;;;;3.95;3.35;;;21.30;31.90;;;;;;5049022;28;20037;-47
2022/01/14 06:21:53;;;;;;;3.10;2.78;;;21.30;32.00;;;;;;5039029;28;20021;-49
2022/01/14 06:24:19;;;;;;;4.03;3.17;;;21.30;32.00;;;;;;5040820;28;20032;-51
2022/01/14 06:26:44;;;;;;;3.50;3.20;;;21.30;32.00;;;;;;5039388;28;20025;-45
2022/01/14 06:29:10;;;;;;;3.65;3.10;;;21.30;32.00;;;;;;5024841;28;20025;-47
2022/01/14 06:31:36;;;;;;;3.17;2.88;;;21.30;32.00;;;;;;5036084;28;20035;-48
2022/01/14 06:34:02;;;;;;;4.07;3.50;;;21.30;32.00;;;;;;5037181;28;20021;-51
2022/01/14 06:36:27;;;;;;;3.70;3.20;;;21.30;32.00;;;;;;5045247;28;20383;-45
2022/01/14 06:38:53;;;;;;;3.72;2.78;;;21.30;32.00;;;;;;5034874;28;20133;-47
2022/01/14 06:41:19;;;;;;;3.40;2.85;;;21.30;32.00;;;;;;5039849;28;20022;-48
2022/01/14 06:43:45;;;;;;;3.00;2.60;;;21.30;32.00;;;;;;5034343;28;20021;-47
2022/01/14 06:46:10;;;;;;;3.97;3.20;;;21.30;32.00;;;;;;5039874;28;20029;-46
2022/01/14 06:48:36;;;;;;;3.50;2.83;;;21.30;32.00;;;;;;5034535;28;20068;-46
2022/01/14 06:51:02;;;;;;;3.72;3.22;;;21.30;32.00;;;;;;5040818;28;20455;-49
2022/01/14 06:53:28;;;;;;;3.60;2.97;;;21.30;32.00;;;;;;5038501;28;20032;-51
2022/01/14 06:55:54;;;;;;;3.50;3.20;;;21.20;32.10;;;;;;5049667;28;20036;-44
2022/01/14 06:58:20;;;;;;;3.75;3.03;;;21.20;32.00;;;;;;5051811;28;20040;-52
2022/01/14 07:00:45;;;;;;;3.13;2.65;;;21.20;32.00;;;;;;5043226;28;20032;-46
2022/01/14 07:03:11;;;;;;;3.13;2.83;;;21.20;32.00;;;;;;5035608;28;20049;-49
2022/01/14 07:05:37;;;;;;;3.35;2.83;;;21.20;32.00;;;;;;5036892;28;20021;-48
2022/01/14 07:08:03;;;;;;;3.20;2.70;;;21.20;32.10;;;;;;5035379;28;20069;-49
2022/01/14 07:10:29;;;;;;;3.28;2.97;;;21.20;32.10;;;;;;5041512;28;20106;-48
2022/01/14 07:12:54;;;;;;;3.17;2.70;;;21.20;32.00;;;;;;5039114;28;20025;-44
2022/01/14 07:15:23;;;;;;;3.30;2.88;;;21.20;32.10;;;;;;5039404;28;20016;-46
2022/01/14 07:17:49;;;;;;;3.40;3.08;;;21.20;32.10;;;;;;5040740;28;20033;-51
2022/01/14 07:20:17;;;;;;;3.60;3.17;;;21.20;32.10;;;;;;5034889;28;20027;-47
2022/01/14 07:22:46;;;;;;;3.03;2.65;;;21.20;32.10;;;;;;5051034;28;20039;-44
2022/01/14 07:25:12;;;;;;;3.83;2.83;;;21.20;32.10;;;;;;5043037;28;20048;-45
2022/01/14 07:27:38;;;;;;;3.75;3.00;;;21.20;32.10;;;;;;5047190;28;20112;-44
2022/01/14 07:30:08;;;;;;;3.10;2.80;;;21.20;32.10;;;;;;5041367;28;20091;-49
2022/01/14 07:32:34;;;;;;;3.55;2.90;;;21.20;32.10;;;;;;5044054;28;20108;-44
2022/01/14 07:35:02;;;;;;;3.47;2.97;;;21.20;32.10;;;;;;5034145;28;20108;-46
2022/01/14 07:37:28;;;;;;;4.18;3.40;;;21.20;32.10;;;;;;5041116;28;20033;-44
2022/01/14 07:39:54;;;;;;;5.45;3.53;;;21.20;32.00;;;;;;5046193;28;20445;-44
2022/01/14 07:42:20;;;;;;;3.60;3.17;;;21.20;32.00;;;;;;5042587;28;20083;-46
2022/01/14 07:44:45;;;;;;;3.70;3.10;;;21.20;32.10;;;;;;5037028;28;20028;-50
2022/01/14 07:47:11;;;;;;;6.43;2.90;;;21.20;32.20;;;;;;5042757;28;20044;-45
2022/01/14 07:49:37;;;;;;;4.25;3.55;;;21.20;32.20;;;;;;5035989;28;20105;-49
2022/01/14 07:52:04;;;;;;;7.07;3.95;;;21.20;32.40;;;;;;5044424;28;20032;-46
2022/01/14 07:54:30;;;;;;;7.35;3.53;;;21.20;32.50;;;;;;5045179;28;20063;-43
2022/01/14 07:56:58;;;;;;;4.38;3.42;;;21.20;32.60;;;;;;5035027;28;20038;-47
2022/01/14 07:59:27;;;;;;;5.80;3.58;;;21.30;32.70;;;;;;5048300;28;20037;-47
2022/01/14 08:01:58;;;;;;;3.80;3.35;;;21.30;32.60;;;;;;5045838;28;20076;-49
2022/01/14 08:04:25;;;;;;;4.15;3.50;;;21.40;32.70;;;;;;5045281;28;20045;-46
2022/01/14 08:06:53;;;;;;;4.32;3.22;;;21.50;32.60;;;;;;5039667;28;20025;-44
2022/01/14 08:09:19;;;;;;;3.92;3.17;;;21.60;32.60;;;;;;5038806;28;20384;-46
2022/01/14 08:11:45;;;;;;;3.88;3.08;;;21.70;32.50;;;;;;5035781;28;20102;-49
2022/01/14 08:14:13;;;;;;;4.15;3.20;;;21.70;32.50;;;;;;5038796;28;20020;-45
2022/01/14 08:16:40;;;;;;;4.30;3.60;;;21.80;32.40;;;;;;5046956;28;20092;-47
2022/01/14 08:19:07;;;;;;;4.05;3.15;;;21.90;32.40;;;;;;5019893;28;20162;-46
2022/01/14 08:21:33;;;;;;;5.28;3.78;;;22.00;32.30;;;;;;5053887;28;20021;-47
2022/01/14 08:23:59;;;;;;;5.07;3.83;;;22.00;32.20;;;;;;5053940;28;20317;-49
2022/01/14 08:26:25;;;;;;;3.72;3.08;;;22.10;32.20;;;;;;5053462;28;20017;-49
2022/01/14 08:28:54;;;;;;;4.18;3.22;;;22.20;32.20;;;;;;5053585;28;20116;-51
2022/01/14 08:31:26;;;;;;;5.45;3.38;;;22.20;32.10;;;;;;5051731;28;20096;-45
2022/01/14 08:33:53;;;;;;;3.85;3.05;;;22.30;32.00;;;;;;5040919;28;20019;-46
2022/01/14 08:36:19;;;;;;;4.47;3.58;;;22.40;32.00;;;;;;5054291;28;20032;-44
2022/01/14 08:38:45;;;;;;;4.20;3.60;;;22.40;31.90;;;;;;5039908;28;20026;-45
2022/01/14 08:41:10;;;;;;;4.93;3.45;;;22.50;31.90;;;;;;5039378;28;20447;-47
2022/01/14 08:43:36;;;;;;;5.05;3.60;;;22.60;31.80;;;;;;5039597;28;20017;-48
2022/01/14 08:46:02;;;;;;;4.45;3.50;;;22.60;31.70;;;;;;5046384;28;20044;-48
2022/01/14 08:48:33;;;;;;;4.50;3.67;;;22.70;31.70;;;;;;5041015;28;20035;-47
2022/01/14 08:50:59;;;;;;;5.30;4.03;;;22.80;31.60;;;;;;5043048;28;20064;-47
2022/01/14 08:53:25;;;;;;;4.25;3.50;;;22.80;31.60;;;;;;5049624;28;20416;-51
2022/01/14 08:55:50;;;;;;;5.03;3.90;;;22.80;31.50;;;;;;5045300;28;20029;-50
2022/01/14 08:58:16;;;;;;;5.38;3.78;;;22.90;31.50;;;;;;5038694;28;20060;-48
2022/01/14 09:00:49;;;;;;;4.65;3.40;;;23.00;31.40;;;;;;5047877;28;20033;-44
2022/01/14 09:03:15;;;;;;;4.53;3.55;;;23.00;31.30;;;;;;5048365;28;20033;-47
2022/01/14 09:05:41;;;;;;;3.90;3.40;;;23.10;31.30;;;;;;5057290;28;20025;-47
2022/01/14 09:08:07;;;;;;;3.85;3.45;;;23.10;31.20;;;;;;5056506;28;20037;-51
2022/01/14 09:10:39;;;;;;;4.90;3.63;;;23.10;31.10;;;;;;5055694;28;20511;-46
2022/01/14 09:13:05;;;;;;;3.95;3.50;;;23.10;31.10;;;;;;5057190;28;20112;-49
2022/01/14 09:15:31;;;;;;;4.05;3.50;;;23.20;31.00;;;;;;5055280;28;20024;-45
2022/01/14 09:17:57;;;;;;;3.83;3.40;;;23.30;31.00;;;;;;5053683;28;20025;-47
2022/01/14 09:20:23;;;;;;;3.97;3.35;;;23.30;31.00;;;;;;5056068;28;20028;-49
2022/01/14 09:22:51;;;;;;;4.13;3.40;;;23.30;30.90;;;;;;5056548;28;20108;-50
2022/01/14 09:25:19;;;;;;;4.18;3.40;;;23.30;30.90;;;;;;5056447;28;20046;-48
2022/01/14 09:27:47;;;;;;;4.53;3.30;;;23.40;30.90;;;;;;5056482;28;20040;-48
2022/01/14 09:30:14;;;;;;;4.20;3.50;;;23.40;30.90;;;;;;5056676;28;20364;-47
2022/01/14 09:32:40;;;;;;;3.88;3.25;;;23.40;30.80;;;;;;5055227;28;20086;-48
2022/01/14 09:35:07;;;;;;;4.20;3.80;;;23.40;30.80;;;;;;5055133;28;20029;-47
2022/01/14 09:37:34;;;;;;;4.03;3.15;;;23.50;30.80;;;;;;5056105;28;20096;-46
2022/01/14 09:40:04;;;;;;;5.15;3.67;;;23.50;30.70;;;;;;5056345;28;20223;-47
2022/01/14 09:42:31;;;;;;;3.85;3.35;;;23.50;30.60;;;;;;5038950;28;20025;-49
2022/01/14 09:44:58;;;;;;;3.85;3.20;;;23.60;30.60;;;;;;5036095;28;20037;-47
2022/01/14 09:47:23;;;;;;;4.00;3.30;;;23.60;30.60;;;;;;5050863;28;20040;-47
2022/01/14 09:49:49;;;;;;;4.38;3.45;;;23.60;30.60;;;;;;5049042;28;20024;-45
2022/01/14 09:52:17;;;;;;;3.83;2.95;;;23.70;30.60;;;;;;5040730;28;20041;-51
2022/01/14 09:54:44;;;;;;;4.18;3.10;;;23.70;30.60;;;;;;5035824;28;20037;-45
2022/01/14 09:57:12;;;;;;;5.45;3.08;;;23.80;30.60;;;;;;5045697;28;20037;-50
2022/01/14 09:59:38;;;;;;;3.92;3.20;;;23.80;30.60;;;;;;5050317;28;20040;-45
2022/01/14 10:02:04;;;;;;;4.20;3.15;;;23.70;30.50;;;;;;5043060;28;20089;-45
2022/01/14 10:04:30;;;;;;;3.65;3.10;;;23.70;30.50;;;;;;5053530;28;20112;-45
2022/01/14 10:06:59;;;;;;;4.10;3.28;;;23.80;30.50;;;;;;5041494;28;20723;-51
2022/01/14 10:09:40;;;;;;;4.30;2.90;;;23.80;30.50;;;;;;5044539;28;20055;-45
2022/01/14 10:12:07;;;;;;;4.20;3.10;;;23.70;30.50;;;;;;5043711;28;20039;-50
2022/01/14 10:14:37;;;;;;;4.03;3.35;;;23.70;30.60;;;;;;5035373;28;20053;-50
2022/01/14 10:17:08;;;;;;;6.10;3.95;;;23.70;30.50;;;;;;5040099;28;20052;-49
2022/01/14 10:19:45;;;;;;;4.85;3.63;;;23.60;30.50;;;;;;5034757;28;20017;-44
2022/01/14 10:22:29;;;;;;;4.53;3.53;;;23.60;30.50;;;;;;5036656;28;20036;-48
2022/01/14 10:25:06;;;;;;;5.25;3.92;;;23.60;30.60;;;;;;5041670;28;20063;-46
2022/01/14 10:27:50;;;;;;;4.95;4.20;;;23.50;30.60;;;;;;5036437;28;20075;-44
2022/01/14 10:30:31;;;;;;;5.45;3.83;;;23.50;30.60;;;;;;5037076;28;20107;-44
2022/01/14 10:33:05;;;;;;;3.78;3.38;;;23.40;30.60;;;;;;5037858;28;20048;-51
2022/01/14 10:35:39;;;;;;;;;;;23.40;30.70;;;;;;5038492;28;20045;-49
2022/01/14 10:38:07;;;;;;;4.40;3.30;;;23.30;30.80;;;;;;5039962;28;19905;-51
2022/01/14 10:40:39;;;;;;;4.45;3.70;;;23.30;30.90;;;;;;5046277;28;20427;-48
2022/01/14 10:43:10;;;;;;;4.95;3.80;;;23.30;30.90;;;;;;5054365;28;20285;-50
2022/01/14 10:45:38;;;;;;;4.50;3.33;;;23.30;30.80;;;;;;5037378;28;20028;-48
2022/01/14 10:48:07;;;;;;;5.60;4.00;;;23.30;30.90;;;;;;5050687;28;20045;-44
2022/01/14 10:50:47;;;;;;;3.83;3.22;;;23.20;30.80;;;;;;5045413;28;20017;-53
2022/01/14 10:53:23;;;;;;;4.43;3.58;;;23.20;30.80;;;;;;5040536;28;20035;-46
2022/01/14 10:55:51;;;;;;;4.68;3.72;;;23.20;30.90;;;;;;5039843;28;20104;-44
2022/01/14 10:58:24;;;;;;;5.15;3.25;;;23.20;30.90;;;;;;5045618;28;20052;-50
2022/01/14 11:00:56;;;;;;;4.13;3.45;;;23.10;30.90;;;;;;5037420;28;20029;-45
2022/01/14 11:03:52;;;;;;;5.30;3.50;;;23.10;30.90;;;;;;5037143;28;20025;-46
2022/01/14 11:06:24;;;;;;;5.32;3.65;;;23.10;30.90;;;;;;5047150;28;20022;-47
2022/01/14 11:08:59;;;;;;;5.20;3.90;;;23.10;31.00;;;;;;5047286;28;20044;-46
2022/01/14 11:11:27;;;;;;;4.47;3.88;;;23.10;30.90;;;;;;5051838;28;20029;-46
2022/01/14 11:13:58;;;;;;;4.93;4.20;;;23.00;30.90;;;;;;5044528;28;20324;-47
2022/01/14 11:16:25;;;;;;;5.00;4.07;;;23.10;31.00;;;;;;5040944;28;20343;-46
2022/01/14 11:18:51;;;;;;;4.75;3.85;;;23.00;30.90;;;;;;5041371;28;20033;-52
2022/01/14 11:24:04;;;;;;;5.20;3.60;;;23.10;30.90;;;;;;5047599;28;20041;-48
2022/01/14 11:26:34;;;;;;;5.07;3.72;;;23.10;30.90;;;;;;5043147;28;20029;-51
2022/01/14 11:29:12;;;;;;;4.50;3.78;;;23.10;30.90;;;;;;5038021;28;20041;-48
2022/01/14 11:31:40;;;;;;;4.10;3.60;;;23.10;30.90;;;;;;5034482;28;20044;-48
2022/01/14 11:34:29;;;;;;;5.20;4.13;;;23.10;30.90;;;;;;5049758;28;20424;-53
2022/01/14 11:36:58;;;;;;;4.47;3.83;;;23.10;30.80;;;;;;5016889;28;20029;-48
2022/01/14 11:39:29;;;;;;;5.35;3.95;;;23.10;30.90;;;;;;5041870;28;20091;-48
2022/01/14 11:41:58;;;;;;;5.88;3.97;;;23.10;30.90;;;;;;5039047;28;20406;-52
2022/01/14 11:44:46;;;;;;;4.63;3.70;;;23.10;30.90;;;;;;5041471;28;20037;-46
2022/01/14 11:47:38;;;;;;;5.32;4.00;;;23.10;30.90;;;;;;5029353;28;20028;-48
2022/01/14 11:50:06;;;;;;;4.40;3.63;;;23.10;31.10;;;;;;5046239;28;20108;-52
2022/01/14 11:52:41;;;;;;;4.30;3.60;;;23.10;31.20;;;;;;5054810;28;20035;-49
2022/01/14 11:55:27;;;;;;;;;;;23.10;31.20;;;;;;5035302;28;20425;-45
2022/01/14 11:57:55;;;;;;;4.65;3.80;;;23.10;31.30;;;;;;5030687;28;19912;-51
2022/01/14 12:02:54;;;;;;;5.22;4.28;;;23.10;31.40;;;;;;5043829;28;20096;-50
2022/01/14 12:05:27;;;;;;;5.32;3.92;;;23.10;31.40;;;;;;5052143;28;20028;-46
2022/01/14 12:08:02;;;;;;;4.15;3.70;;;23.10;31.40;;;;;;5046533;28;20060;-57
2022/01/14 12:10:29;;;;;;;5.22;3.90;;;23.10;31.40;;;;;;5037527;28;20060;-43
2022/01/14 12:13:15;;;;;;;5.20;3.90;;;23.10;31.50;;;;;;5047289;28;20036;-48
2022/01/14 12:15:55;;;;;;;4.00;3.50;;;23.10;31.40;;;;;;5049761;28;20499;-46
2022/01/14 12:18:49;;;;;;;5.40;3.65;;;23.10;31.50;;;;;;5049348;28;20025;-48
2022/01/14 12:21:15;;;;;;;4.63;3.70;;;23.10;31.50;;;;;;5037374;28;20025;-49
2022/01/14 12:23:41;;;;;;;4.78;3.78;;;23.10;31.50;;;;;;5039265;28;20049;-48
2022/01/14 12:26:18;;;;;;;5.22;3.60;;;23.10;31.50;;;;;;5043200;28;20017;-48
2022/01/14 12:28:46;;;;;;;4.93;4.00;;;23.10;31.50;;;;;;5043761;28;20041;-48
2022/01/14 12:31:12;;;;;;;4.38;3.72;;;23.10;31.50;;;;;;5048682;28;20022;-46
2022/01/14 12:33:42;;;;;;;4.68;3.97;;;23.00;31.50;;;;;;5048979;28;20337;-50
2022/01/14 12:36:19;;;;;;;5.45;3.75;;;23.00;31.40;;;;;;5042223;28;20033;-44
2022/01/14 12:38:46;;;;;;;5.75;4.07;;;23.10;31.50;;;;;;5045934;28;20013;-45
2022/01/14 12:41:20;;;;;;;5.10;3.85;;;23.00;31.40;;;;;;5049223;28;20032;-48
2022/01/14 12:43:55;;;;;;;6.60;4.40;;;23.00;31.40;;;;;;5039401;28;20040;-47
2022/01/14 12:46:46;;;;;;;6.07;4.60;;;23.00;31.50;;;;;;5050506;28;20029;-45
2022/01/14 12:49:20;;;;;;;4.28;3.70;;;23.00;31.50;;;;;;5041324;28;20085;-51
2022/01/14 12:51:46;;;;;;;7.20;3.58;;;23.00;31.50;;;;;;5051167;28;20033;-52
2022/01/14 12:54:12;;;;;;;4.82;3.50;;;22.90;31.60;;;;;;5043447;28;20129;-47
2022/01/14 12:56:39;;;;;;;4.88;3.67;;;23.00;31.90;;;;;;5053671;28;20044;-51
2022/01/14 12:59:14;;;;;;;4.85;3.78;;;23.00;32.10;;;;;;5038811;28;20043;-48
2022/01/14 13:01:47;;;;;;;4.55;3.63;;;23.00;32.20;;;;;;5029448;28;20055;-49
2022/01/14 13:04:17;;;;;;;5.20;3.90;;;23.10;32.20;;;;;;5050782;28;20017;-51
2022/01/14 13:06:45;;;;;;;5.00;3.70;;;23.10;32.20;;;;;;5040456;28;20025;-45
2022/01/14 13:09:18;;;;;;;5.13;3.67;;;23.00;32.20;;;;;;5054598;28;20024;-50
2022/01/14 13:11:48;;;;;;;4.55;3.70;;;23.00;32.20;;;;;;5046038;28;20029;-51
2022/01/14 13:14:18;;;;;;;4.20;3.42;;;23.00;32.20;;;;;;5041244;28;20047;-48
2022/01/14 13:16:48;;;;;;;4.70;3.78;;;23.00;32.20;;;;;;5054375;28;20037;-52
2022/01/14 13:19:32;;;;;;;4.57;3.35;;;23.00;32.20;;;;;;5041617;28;20079;-55
2022/01/14 13:22:08;;;;;;;4.77;3.67;;;23.00;32.20;;;;;;5051109;28;20103;-47
2022/01/14 13:24:40;;;;;;;5.43;3.95;;;23.00;32.10;;;;;;5039749;28;20440;-57
2022/01/14 13:27:11;;;;;;;4.80;3.83;;;23.00;32.20;;;;;;5053646;28;20436;-54